Quebec, Canada

8:58 AM EDT on July 28, 2016 (GMT -0400)
Quebec-Lesage International | | Change Station

Elev 243 ft 46.79 °N, 71.39 °W | Updated 58 minutes ago

Overcast
Overcast
68 °F
Feels Like 68 °F
N
2
Wind Variable Wind from Variable

Today
High -- | Low -- °F
--% Chance of Precip.
Yesterday
High -- | Low -- °F
Precip. -- in
Pressure 29.89 in
Visibility 20.0 miles
Clouds Few 1500 ft
Mostly Cloudy 9000 ft
Overcast 21000 ft
Dew Point 63 °F
Humidity 83%
Rainfall 0.00 in
Snow Depth Not available.
5:21 AM 8:22 PM
Waning Crescent, 32% visible
METAR CYQB 281200Z VRB02KT 20SM FEW015 BKN090 OVC210 20/17 A2988 RMK SC1AC5CI2 SLP121 DENSITY ALT 900FT
Pressure 29.89 in
Visibility 20.0 miles
Clouds Few 1500 ft
Mostly Cloudy 9000 ft
Overcast 21000 ft
Dew Point 63 °F
Humidity 83%
Rainfall 0.00 in
Snow Depth Not available.
5:21 AM 8:22 PM
Waning Crescent, 32% visible
METAR CYQB 281200Z VRB02KT 20SM FEW015 BKN090 OVC210 20/17 A2988 RMK SC1AC5CI2 SLP121 DENSITY ALT 900FT

10-Day Weather Forecast

Almanac

Astronomy

Jul. 28, 2016 Rise Set
Actual Time
Civil Twilight
Nautical Twilight
Astronomical Twilight
Moon
Length of Visible Light
Length of Day
Tomorrow will be .
, % of the Moon is Illuminated

Today's Extremes

Country Highs Country Lows

Community

WunderPhotos

Upload Photos

1,928,101 photos uploaded!

WunderBlog® & News

Nearby

Air Quality

  Air Quality AQ Index Pollutant
Not available.

Snow Depth

Station Depth Elevation

Earthquake Activity

City Distance Mag. Time & Date
Minimum magnitude displayed is 2.5.

Coastal Water Temperatures

Place Temperature

Stations

Nearby Weather Stations

Station Location Temp. Windchill Dew Point Humidity Wind Precip. Elev Updated Type
                   

Watches & Warnings

There are currently no watches in effect.